Time;durP1;ratioP1;P1;durP2;ratioP2;P2;SDS_P1;SDS_P2;PMS_P1;PMS_P2;Temp;Humidity;BMP_temperature;BMP_pressure;BME280_temperature;BME280_humidity;BME280_pressure;Samples;Min_cycle;Max_cycle;Signal;HPM_P1;HPM_P2
2022/12/23 00:01:26;;;;;;;2.60;1.38;;;9.40;41.70;;;;;;7389540;19;20083;-73
2022/12/23 00:04:00;;;;;;;4.57;1.40;;;9.40;41.70;;;;;;7390440;19;20039;-74
2022/12/23 00:06:30;;;;;;;5.05;1.30;;;9.40;41.90;;;;;;7390965;19;20150;-72
2022/12/23 00:09:01;;;;;;;2.97;1.13;;;9.40;42.90;;;;;;7383597;19;20015;-73
2022/12/23 00:11:30;;;;;;;4.40;1.08;;;9.40;43.80;;;;;;7391718;19;20014;-73
2022/12/23 00:16:52;;;;;;;4.03;1.10;;;9.40;44.90;;;;;;7391918;19;20035;-73
2022/12/23 00:19:22;;;;;;;4.78;1.30;;;9.40;45.80;;;;;;7383561;19;20525;-72
2022/12/23 00:21:52;;;;;;;3.45;1.20;;;9.40;45.80;;;;;;7390499;19;20089;-73
2022/12/23 00:24:22;;;;;;;5.97;1.40;;;9.40;46.00;;;;;;7390657;19;20377;-72
2022/12/23 00:26:52;;;;;;;3.35;1.17;;;9.40;46.60;;;;;;7389541;19;20110;-74
2022/12/23 00:29:21;;;;;;;3.80;1.10;;;9.40;46.90;;;;;;7383787;19;20017;-74
2022/12/23 00:31:54;;;;;;;4.30;1.08;;;9.40;47.20;;;;;;7389812;19;20011;-74
2022/12/23 00:34:24;;;;;;;3.53;1.08;;;9.40;47.20;;;;;;7390190;19;20018;-72
2022/12/23 00:36:54;;;;;;;4.20;0.95;;;9.40;48.40;;;;;;7391756;19;20034;-74
2022/12/23 00:44:48;;;;;;;7.80;1.17;;;9.40;49.90;;;;;;7390502;19;20078;-73
2022/12/23 00:50:02;;;;;;;;;;;9.50;50.50;;;;;;7384873;19;20090;-74
2022/12/23 00:52:32;;;;;;;2.97;1.00;;;9.50;50.90;;;;;;7389907;19;19925;-73
2022/12/23 00:55:02;;;;;;;3.63;1.00;;;9.50;51.00;;;;;;7388886;19;20002;-74
2022/12/23 00:57:32;;;;;;;1.95;0.93;;;9.60;50.30;;;;;;7387897;19;20045;-73
2022/12/23 01:00:01;;;;;;;2.92;1.20;;;9.60;50.10;;;;;;7381327;19;20086;-74
2022/12/23 01:08:05;;;;;;;6.47;0.95;;;9.60;49.90;;;;;;7387590;19;20029;-74
2022/12/23 01:10:36;;;;;;;2.40;1.02;;;9.70;49.40;;;;;;7383262;19;20090;-73
2022/12/23 01:13:06;;;;;;;3.78;0.90;;;9.70;49.10;;;;;;7390160;19;20022;-73
2022/12/23 01:15:36;;;;;;;2.38;0.93;;;9.70;48.70;;;;;;7390197;19;20016;-74
2022/12/23 01:18:08;;;;;;;2.88;0.93;;;9.70;48.70;;;;;;7387807;19;20006;-73
2022/12/23 01:20:39;;;;;;;1.85;0.80;;;9.70;48.90;;;;;;7385915;19;20145;-74
2022/12/23 01:23:09;;;;;;;3.88;0.80;;;9.80;49.50;;;;;;7389727;19;20019;-72
2022/12/23 01:25:39;;;;;;;1.42;0.65;;;9.80;49.60;;;;;;7390222;19;20010;-73
2022/12/23 01:28:09;;;;;;;1.55;0.88;;;9.80;49.40;;;;;;7387333;19;20017;-72
2022/12/23 01:30:39;;;;;;;1.27;0.70;;;9.80;49.40;;;;;;7387357;19;20021;-73
2022/12/23 01:33:11;;;;;;;1.88;0.70;;;9.80;49.20;;;;;;7391440;19;20022;-72
2022/12/23 01:35:41;;;;;;;3.22;0.90;;;9.90;49.50;;;;;;7390749;19;20011;-73
2022/12/23 01:38:11;;;;;;;3.05;1.00;;;9.90;49.50;;;;;;7386763;19;20011;-72
2022/12/23 01:40:43;;;;;;;1.73;0.70;;;9.90;49.50;;;;;;7385506;19;20433;-72
2022/12/23 01:43:14;;;;;;;1.23;0.60;;;9.90;50.30;;;;;;7389349;19;20078;-72
2022/12/23 01:45:44;;;;;;;2.88;0.90;;;9.90;50.20;;;;;;7388303;19;20017;-72
2022/12/23 01:48:21;;;;;;;4.15;1.42;;;9.90;50.70;;;;;;7386852;19;20470;-74
2022/12/23 01:50:56;;;;;;;1.92;0.73;;;9.90;50.40;;;;;;7386546;19;20006;-74
2022/12/23 01:53:30;;;;;;;1.58;0.70;;;9.90;50.40;;;;;;7388309;19;20014;-75
2022/12/23 01:56:04;;;;;;;0.95;0.50;;;9.90;50.90;;;;;;7387486;19;20014;-74
2022/12/23 01:58:39;;;;;;;3.60;1.05;;;10.00;50.20;;;;;;7380804;19;20035;-73
2022/12/23 02:03:59;;;;;;;2.53;0.77;;;10.00;50.60;;;;;;7388249;19;20022;-73
2022/12/23 02:09:18;;;;;;;2.67;0.70;;;10.10;50.80;;;;;;7380154;19;20582;-73
2022/12/23 02:12:20;;;;;;;2.83;0.60;;;10.10;50.70;;;;;;7394787;19;20014;-74
2022/12/23 02:17:59;;;;;;;1.23;0.30;;;10.20;51.60;;;;;;7393398;19;20816;-73
2022/12/23 02:21:04;;;;;;;1.65;0.45;;;10.30;51.50;;;;;;7387526;19;20007;-74
2022/12/23 02:24:07;;;;;;;0.60;0.30;;;10.30;52.20;;;;;;7392993;19;20078;-73
2022/12/23 02:27:18;;;;;;;0.50;0.20;;;10.40;52.00;;;;;;7393895;19;20485;-74
2022/12/23 02:30:27;;;;;;;6.45;0.30;;;10.60;52.50;;;;;;7385290;19;20014;-75
2022/12/23 02:33:35;;;;;;;1.20;0.30;;;10.60;51.50;;;;;;7394996;19;20018;-74
2022/12/23 02:36:17;;;;;;;0.28;0.10;;;10.70;51.70;;;;;;7394019;19;20022;-73
2022/12/23 02:38:54;;;;;;;1.58;0.20;;;10.80;52.30;;;;;;7386394;19;20031;-73
2022/12/23 02:41:31;;;;;;;1.58;0.22;;;11.00;52.30;;;;;;7394679;19;20023;-74
2022/12/23 02:44:09;;;;;;;1.80;0.20;;;11.00;52.20;;;;;;7394097;19;20078;-74
2022/12/23 02:46:47;;;;;;;2.65;0.13;;;10.90;52.30;;;;;;7393680;19;20027;-73
2022/12/23 02:49:23;;;;;;;0.40;0.30;;;11.00;52.70;;;;;;7387136;19;20049;-73
2022/12/23 02:51:57;;;;;;;0.98;0.20;;;10.90;52.60;;;;;;7393168;19;20014;-73
2022/12/23 02:54:30;;;;;;;;;;;11.00;52.90;;;;;;7395609;19;20014;-74
2022/12/23 02:57:02;;;;;;;1.77;0.30;;;11.10;53.00;;;;;;7394826;19;19910;-72
2022/12/23 02:59:41;;;;;;;0.15;0.10;;;11.40;51.40;;;;;;7385787;19;20050;-74
2022/12/23 03:02:11;;;;;;;0.45;0.17;;;11.50;47.70;;;;;;7393444;19;20010;-74
2022/12/23 03:04:41;;;;;;;1.65;0.68;;;11.80;46.40;;;;;;7394527;19;20014;-73
2022/12/23 03:07:19;;;;;;;0.55;0.20;;;11.80;45.30;;;;;;7391433;19;20017;-74
2022/12/23 03:09:59;;;;;;;0.20;0.20;;;11.90;44.50;;;;;;7387538;19;20011;-73
2022/12/23 03:12:42;;;;;;;0.43;0.30;;;11.80;43.80;;;;;;7390108;19;20432;-73
2022/12/23 03:15:22;;;;;;;0.20;0.20;;;11.80;43.40;;;;;;7394602;19;20006;-73
2022/12/23 03:18:02;;;;;;;1.00;0.20;;;11.90;42.80;;;;;;7391965;19;20007;-73
2022/12/23 03:20:40;;;;;;;0.32;0.20;;;11.90;42.10;;;;;;7386646;19;20486;-73
2022/12/23 03:23:22;;;;;;;1.13;0.17;;;12.00;41.30;;;;;;7390587;19;20497;-72
2022/12/23 03:26:00;;;;;;;0.60;0.20;;;11.80;40.50;;;;;;7394151;19;20612;-74
2022/12/23 03:28:37;;;;;;;0.15;0.10;;;11.80;42.40;;;;;;7382862;19;20735;-73
2022/12/23 03:31:12;;;;;;;0.10;0.10;;;11.80;43.10;;;;;;7391953;19;20062;-73
2022/12/23 03:33:46;;;;;;;0.10;0.10;;;11.80;42.90;;;;;;7391475;19;20097;-74
2022/12/23 03:36:22;;;;;;;0.10;0.10;;;11.80;44.40;;;;;;7393246;19;20018;-74
2022/12/23 03:38:57;;;;;;;1.98;0.60;;;11.80;43.90;;;;;;7384265;19;20081;-74
2022/12/23 03:41:32;;;;;;;0.17;0.10;;;11.70;45.00;;;;;;7393109;19;20426;-74
2022/12/23 03:44:07;;;;;;;0.10;0.10;;;11.70;45.40;;;;;;7392273;19;20090;-74
2022/12/23 03:46:39;;;;;;;;;;;11.70;46.80;;;;;;7391868;19;20013;-73
2022/12/23 03:49:13;;;;;;;0.10;0.10;;;11.80;46.60;;;;;;7383296;19;20364;-73
2022/12/23 03:51:50;;;;;;;0.57;0.20;;;11.70;45.60;;;;;;7392504;19;20419;-74
2022/12/23 03:54:27;;;;;;;0.52;0.20;;;11.70;44.80;;;;;;7390590;19;20417;-74
2022/12/23 03:57:02;;;;;;;0.43;0.20;;;11.70;45.70;;;;;;7392679;19;20002;-74
2022/12/23 03:59:35;;;;;;;0.60;0.20;;;11.70;44.70;;;;;;7384040;19;20082;-73
2022/12/23 04:02:10;;;;;;;0.30;0.20;;;11.60;44.20;;;;;;7391938;19;20091;-74
2022/12/23 04:04:53;;;;;;;0.40;0.30;;;11.60;44.90;;;;;;7391147;19;20014;-73
2022/12/23 04:07:26;;;;;;;0.43;0.20;;;11.70;45.40;;;;;;7389840;19;20031;-73
2022/12/23 04:09:59;;;;;;;0.43;0.40;;;11.70;44.40;;;;;;7386137;19;20096;-73
2022/12/23 04:12:31;;;;;;;0.70;0.50;;;11.60;43.50;;;;;;7394073;19;20081;-73
2022/12/23 04:15:01;;;;;;;0.68;0.50;;;11.60;44.40;;;;;;7401461;19;20023;-73
2022/12/23 04:17:38;;;;;;;0.50;0.40;;;11.60;44.30;;;;;;7388322;19;20025;-73
2022/12/23 04:20:09;;;;;;;1.48;0.52;;;11.50;44.90;;;;;;7389577;19;20011;-73
2022/12/23 04:22:39;;;;;;;0.90;0.60;;;11.50;45.50;;;;;;7390821;19;20277;-73
2022/12/23 04:25:11;;;;;;;0.40;0.40;;;11.60;45.80;;;;;;7392929;19;20093;-73
2022/12/23 04:27:45;;;;;;;1.00;0.50;;;11.60;44.70;;;;;;7388977;19;20022;-73
2022/12/23 04:30:15;;;;;;;0.50;0.43;;;11.60;45.00;;;;;;7385356;19;20490;-73
2022/12/23 04:32:45;;;;;;;2.28;0.63;;;11.70;44.10;;;;;;7391231;19;20018;-74
2022/12/23 04:35:15;;;;;;;0.95;0.60;;;11.60;45.00;;;;;;7397140;19;20359;-73
2022/12/23 04:37:45;;;;;;;0.77;0.60;;;11.60;43.90;;;;;;7388583;19;20046;-73
2022/12/23 04:40:18;;;;;;;2.30;1.00;;;11.60;43.90;;;;;;7384628;19;20021;-73
2022/12/23 04:42:48;;;;;;;0.95;0.75;;;11.50;43.40;;;;;;7391786;19;20066;-73
2022/12/23 04:45:18;;;;;;;0.70;0.60;;;11.50;44.10;;;;;;7396503;19;20106;-73
2022/12/23 04:47:47;;;;;;;1.13;0.73;;;11.40;44.30;;;;;;7391227;19;20002;-73
2022/12/23 04:50:18;;;;;;;0.93;0.65;;;11.50;45.70;;;;;;7386293;19;20010;-72
2022/12/23 04:52:48;;;;;;;1.38;0.70;;;11.40;44.90;;;;;;7391296;19;20201;-74
2022/12/23 04:55:20;;;;;;;0.77;0.65;;;11.40;45.80;;;;;;7391786;19;20010;-74
2022/12/23 04:57:50;;;;;;;3.22;0.85;;;11.40;45.00;;;;;;7388327;19;20013;-74
2022/12/23 05:00:21;;;;;;;2.25;0.98;;;11.30;46.20;;;;;;7384381;19;20028;-73
2022/12/23 05:02:50;;;;;;;3.00;1.00;;;11.50;45.50;;;;;;7389327;19;20007;-74
2022/12/23 05:05:20;;;;;;;1.42;1.08;;;11.50;44.70;;;;;;7390226;19;20015;-74
2022/12/23 05:07:52;;;;;;;1.33;0.90;;;11.50;45.40;;;;;;7385968;19;20112;-73
2022/12/23 05:10:24;;;;;;;1.20;1.00;;;11.50;45.40;;;;;;7383969;19;20035;-74
2022/12/23 05:12:54;;;;;;;1.25;0.90;;;11.40;45.70;;;;;;7388149;19;20014;-74
2022/12/23 05:15:23;;;;;;;1.08;0.80;;;11.40;46.40;;;;;;7390625;19;20014;-74
2022/12/23 05:17:53;;;;;;;1.15;0.70;;;11.40;46.30;;;;;;7387710;19;20006;-74
2022/12/23 05:20:23;;;;;;;0.75;0.68;;;11.40;46.10;;;;;;7383226;19;20468;-74
2022/12/23 05:22:53;;;;;;;1.20;0.98;;;11.40;46.20;;;;;;7387342;19;20090;-74
2022/12/23 05:25:25;;;;;;;1.55;0.98;;;11.30;46.20;;;;;;7390060;19;20010;-74
2022/12/23 05:27:55;;;;;;;3.45;1.15;;;11.30;46.50;;;;;;7386723;19;20015;-74
2022/12/23 05:30:27;;;;;;;1.17;0.75;;;11.30;46.80;;;;;;7383546;19;20783;-74
2022/12/23 05:32:58;;;;;;;1.10;1.00;;;11.30;46.60;;;;;;7388741;19;20351;-73
2022/12/23 05:35:29;;;;;;;1.13;0.80;;;11.30;46.40;;;;;;7389930;19;20030;-73
2022/12/23 05:38:01;;;;;;;2.55;1.10;;;11.30;46.50;;;;;;7386987;19;20031;-74
2022/12/23 05:40:34;;;;;;;3.33;1.17;;;11.30;46.50;;;;;;7382987;19;20010;-73
2022/12/23 05:43:04;;;;;;;1.17;1.02;;;11.30;46.40;;;;;;7388947;19;20010;-73
2022/12/23 05:45:36;;;;;;;1.20;1.10;;;11.30;46.00;;;;;;7391983;19;20022;-74
2022/12/23 05:48:06;;;;;;;1.85;0.98;;;11.30;46.10;;;;;;7393429;19;20063;-74
2022/12/23 05:50:37;;;;;;;1.20;1.02;;;11.30;45.20;;;;;;7391705;19;20017;-73
2022/12/23 05:53:07;;;;;;;2.53;1.30;;;11.30;44.90;;;;;;7396292;19;20035;-73
2022/12/23 05:55:40;;;;;;;1.20;0.95;;;11.30;44.60;;;;;;7395062;19;20836;-73
2022/12/23 05:58:10;;;;;;;1.02;0.82;;;11.30;44.90;;;;;;7393759;19;20078;-73
2022/12/23 06:00:39;;;;;;;1.73;0.80;;;11.30;43.20;;;;;;7392650;19;20018;-73
2022/12/23 06:03:09;;;;;;;1.13;0.80;;;11.30;42.40;;;;;;7394963;19;20010;-74
2022/12/23 06:05:42;;;;;;;1.92;1.38;;;11.20;42.30;;;;;;7396999;19;20497;-74
2022/12/23 06:08:12;;;;;;;1.45;0.95;;;11.20;42.30;;;;;;7393381;19;20010;-73
2022/12/23 06:10:44;;;;;;;2.58;1.65;;;11.30;42.30;;;;;;7392894;19;20353;-74
2022/12/23 06:13:14;;;;;;;3.00;1.48;;;11.30;41.10;;;;;;7393813;19;20477;-74
2022/12/23 06:15:44;;;;;;;2.25;1.58;;;11.30;40.80;;;;;;7396706;19;20014;-75
2022/12/23 06:18:14;;;;;;;2.63;1.50;;;11.30;40.00;;;;;;7392914;19;20474;-74
2022/12/23 06:20:46;;;;;;;3.08;1.48;;;11.30;39.70;;;;;;7392826;19;20016;-74
2022/12/23 06:23:16;;;;;;;0.93;0.80;;;11.30;40.30;;;;;;7395362;19;20018;-74
2022/12/23 06:25:48;;;;;;;2.55;1.05;;;11.30;40.10;;;;;;7394807;19;20015;-74
2022/12/23 06:28:18;;;;;;;1.10;1.00;;;11.30;40.70;;;;;;7390383;19;20069;-74
2022/12/23 06:30:54;;;;;;;1.10;0.90;;;11.30;39.90;;;;;;7394236;19;20018;-75
2022/12/23 06:33:25;;;;;;;1.30;0.90;;;11.30;40.20;;;;;;7394397;19;20031;-74
2022/12/23 06:35:55;;;;;;;1.25;0.90;;;11.30;39.80;;;;;;7394431;19;20022;-75
2022/12/23 06:38:25;;;;;;;1.73;1.10;;;11.30;40.00;;;;;;7389464;19;20015;-75
2022/12/23 06:40:57;;;;;;;1.50;1.17;;;11.30;40.40;;;;;;7392265;19;20009;-75
2022/12/23 06:43:28;;;;;;;1.27;1.00;;;11.30;40.60;;;;;;7394692;19;20014;-75
2022/12/23 06:45:57;;;;;;;3.65;0.90;;;11.30;41.50;;;;;;7394119;19;20021;-75
2022/12/23 06:48:27;;;;;;;3.65;1.25;;;11.30;41.30;;;;;;7388814;19;20097;-75
2022/12/23 06:50:57;;;;;;;2.95;0.93;;;11.20;41.00;;;;;;7390533;19;20533;-75
2022/12/23 06:53:27;;;;;;;1.25;1.05;;;11.20;40.90;;;;;;7394788;19;20006;-74
2022/12/23 06:56:05;;;;;;;1.05;0.80;;;11.20;41.60;;;;;;7393835;19;20018;-74
2022/12/23 06:58:34;;;;;;;0.98;0.90;;;11.20;42.00;;;;;;7388376;19;20013;-75
2022/12/23 07:01:04;;;;;;;1.05;0.95;;;11.30;42.00;;;;;;7392140;19;20014;-75
2022/12/23 07:03:34;;;;;;;2.10;1.15;;;11.20;41.20;;;;;;7393307;19;20022;-75
2022/12/23 07:06:04;;;;;;;1.60;1.10;;;11.20;41.20;;;;;;7393576;19;20086;-75
2022/12/23 07:08:34;;;;;;;2.53;1.33;;;11.20;40.90;;;;;;7386380;19;20018;-74
2022/12/23 07:11:07;;;;;;;1.25;1.02;;;11.20;41.20;;;;;;7392697;19;20013;-75
2022/12/23 07:13:37;;;;;;;1.00;0.70;;;11.20;41.30;;;;;;7394170;19;20014;-75
2022/12/23 07:16:08;;;;;;;2.70;0.77;;;11.10;41.60;;;;;;7392736;19;20039;-74
2022/12/23 07:18:38;;;;;;;3.28;0.90;;;11.10;42.20;;;;;;7387795;19;20043;-75
2022/12/23 07:21:08;;;;;;;1.13;0.90;;;11.20;42.30;;;;;;7392214;19;20019;-75
2022/12/23 07:23:53;;;;;;;1.67;1.10;;;11.10;42.30;;;;;;7393369;19;20015;-74
2022/12/23 07:26:25;;;;;;;3.33;1.17;;;11.10;42.40;;;;;;7393088;19;20086;-75
2022/12/23 07:28:55;;;;;;;2.58;1.20;;;11.10;43.20;;;;;;7386527;19;20048;-75
2022/12/23 07:31:25;;;;;;;2.78;1.52;;;11.10;43.30;;;;;;7391468;19;20011;-76
2022/12/23 07:33:55;;;;;;;2.58;1.48;;;11.10;43.80;;;;;;7392312;19;20054;-74
2022/12/23 07:36:24;;;;;;;4.53;1.30;;;11.10;44.30;;;;;;7392560;19;20070;-74
2022/12/23 07:38:55;;;;;;;4.40;1.23;;;11.10;44.20;;;;;;7388492;19;20017;-75
2022/12/23 07:41:27;;;;;;;2.50;1.63;;;11.10;45.00;;;;;;7391037;19;20014;-75
2022/12/23 07:43:57;;;;;;;3.00;1.50;;;11.10;44.90;;;;;;7393400;19;20019;-75
2022/12/23 07:46:27;;;;;;;3.03;1.70;;;11.10;45.20;;;;;;7393353;19;20090;-75
2022/12/23 07:48:57;;;;;;;3.38;2.30;;;11.10;46.00;;;;;;7389512;19;20006;-75
2022/12/23 07:51:27;;;;;;;4.05;2.50;;;11.00;46.30;;;;;;7391074;19;20228;-76
2022/12/23 07:53:57;;;;;;;6.25;3.53;;;11.00;46.50;;;;;;7392060;19;20006;-76
2022/12/23 07:56:29;;;;;;;6.70;3.55;;;11.00;47.20;;;;;;7390475;19;20010;-75
2022/12/23 07:58:59;;;;;;;6.57;2.85;;;11.00;47.70;;;;;;7416514;19;20002;-74
2022/12/23 08:01:29;;;;;;;4.38;2.95;;;11.00;47.70;;;;;;7422816;19;20006;-74
2022/12/23 08:03:59;;;;;;;5.45;3.20;;;11.00;47.90;;;;;;7415378;19;20006;-74
2022/12/23 08:06:28;;;;;;;3.38;2.45;;;11.00;48.00;;;;;;7392434;19;20077;-75
2022/12/23 08:08:58;;;;;;;4.38;2.78;;;11.00;48.90;;;;;;7386683;19;20336;-75
2022/12/23 08:11:31;;;;;;;3.90;2.45;;;11.00;49.20;;;;;;7387932;19;20061;-76
2022/12/23 08:14:01;;;;;;;5.43;2.33;;;11.00;49.70;;;;;;7390755;19;20062;-76
2022/12/23 08:16:30;;;;;;;4.60;2.00;;;11.00;50.30;;;;;;7388855;19;20469;-76
2022/12/23 08:19:12;;;;;;;7.97;2.70;;;11.10;50.60;;;;;;7383432;19;20017;-75
2022/12/23 08:21:42;;;;;;;4.18;2.70;;;11.00;50.80;;;;;;7387990;19;20010;-75
2022/12/23 08:24:14;;;;;;;3.92;2.72;;;11.00;51.60;;;;;;7390733;19;20341;-75
2022/12/23 08:26:46;;;;;;;7.47;3.70;;;11.00;51.60;;;;;;7390039;19;20007;-74
2022/12/23 08:29:16;;;;;;;4.85;3.05;;;11.10;52.10;;;;;;7381710;19;20011;-75
2022/12/23 08:31:46;;;;;;;3.50;2.67;;;11.20;51.90;;;;;;7387448;19;20338;-76
2022/12/23 08:34:15;;;;;;;3.88;3.00;;;11.20;51.40;;;;;;7388087;19;20007;-74
2022/12/23 08:36:45;;;;;;;3.58;2.30;;;11.20;51.50;;;;;;7388808;19;20015;-75
2022/12/23 08:39:15;;;;;;;4.93;2.25;;;11.20;51.60;;;;;;7382821;19;20098;-76
2022/12/23 08:41:49;;;;;;;2.58;1.65;;;11.20;50.80;;;;;;7390798;19;20048;-76
2022/12/23 08:44:19;;;;;;;2.33;1.90;;;11.30;50.50;;;;;;7390430;19;20010;-76
2022/12/23 08:46:49;;;;;;;3.38;1.73;;;11.30;48.80;;;;;;7389181;19;20015;-76
2022/12/23 08:49:19;;;;;;;4.30;1.50;;;11.30;47.30;;;;;;7382080;19;20111;-75
2022/12/23 08:51:49;;;;;;;4.28;1.65;;;11.40;46.90;;;;;;7390649;19;20027;-76
2022/12/23 08:54:19;;;;;;;2.10;1.20;;;11.50;45.20;;;;;;7389849;19;20010;-76
2022/12/23 08:56:51;;;;;;;3.97;1.10;;;11.60;42.50;;;;;;7390412;19;20006;-76
2022/12/23 08:59:21;;;;;;;5.65;3.40;;;11.70;39.20;;;;;;7380813;19;20014;-76
2022/12/23 09:01:51;;;;;;;2.38;1.42;;;11.80;37.20;;;;;;7388773;19;20010;-75
2022/12/23 09:04:21;;;;;;;2.55;1.50;;;11.80;34.90;;;;;;7389980;19;20006;-75
2022/12/23 09:06:51;;;;;;;5.88;2.75;;;11.90;32.80;;;;;;7388887;19;20090;-75
2022/12/23 09:09:21;;;;;;;5.60;3.85;;;11.90;32.20;;;;;;7380786;19;20025;-75
2022/12/23 09:11:53;;;;;;;8.38;4.95;;;12.00;31.70;;;;;;7388490;19;20018;-75
2022/12/23 09:14:23;;;;;;;2.33;1.60;;;12.00;31.30;;;;;;7389758;19;20027;-75
2022/12/23 09:16:53;;;;;;;1.42;0.98;;;12.00;30.80;;;;;;7389169;19;20015;-76
2022/12/23 09:19:23;;;;;;;1.20;0.98;;;12.00;30.80;;;;;;7377164;19;20376;-75
2022/12/23 09:21:53;;;;;;;0.90;0.80;;;12.00;31.00;;;;;;7389359;19;20018;-75
2022/12/23 09:24:23;;;;;;;0.82;0.63;;;11.90;30.90;;;;;;7389302;19;20006;-75
2022/12/23 09:26:55;;;;;;;1.15;0.60;;;11.90;31.00;;;;;;7387247;19;20021;-75
2022/12/23 09:29:25;;;;;;;0.93;0.60;;;12.00;31.10;;;;;;7379897;19;20078;-75
2022/12/23 09:31:55;;;;;;;1.40;0.88;;;12.00;31.50;;;;;;7387232;19;20028;-75
2022/12/23 09:34:25;;;;;;;4.25;0.80;;;11.90;32.00;;;;;;7388621;19;20373;-75
2022/12/23 09:36:55;;;;;;;3.88;1.00;;;11.90;32.30;;;;;;7390187;19;20011;-75
2022/12/23 09:39:25;;;;;;;1.55;0.85;;;12.00;33.10;;;;;;7380909;19;20014;-75
2022/12/23 09:42:07;;;;;;;1.90;1.30;;;12.00;32.90;;;;;;7388131;19;20022;-75
2022/12/23 09:44:47;;;;;;;2.22;1.05;;;12.00;33.30;;;;;;7389011;19;20014;-75
2022/12/23 09:47:20;;;;;;;1.90;1.23;;;12.00;33.90;;;;;;7386526;19;20751;-75
2022/12/23 09:49:53;;;;;;;3.40;1.23;;;12.00;33.20;;;;;;7382899;19;20014;-75
2022/12/23 09:52:29;;;;;;;2.28;1.40;;;12.10;33.50;;;;;;7387033;19;20014;-74
2022/12/23 09:54:59;;;;;;;2.38;1.13;;;12.10;33.30;;;;;;7388343;19;20046;-75
2022/12/23 09:57:37;;;;;;;2.97;2.20;;;12.10;33.30;;;;;;7385817;19;20069;-75
2022/12/23 10:00:14;;;;;;;6.20;1.85;;;12.20;32.70;;;;;;7381729;19;20027;-75
2022/12/23 10:03:01;;;;;;;2.60;1.50;;;12.20;32.30;;;;;;7387075;19;20502;-75
2022/12/23 10:05:41;;;;;;;2.80;1.40;;;12.20;32.20;;;;;;7388812;19;20039;-75
2022/12/23 10:08:16;;;;;;;4.07;1.80;;;12.10;31.60;;;;;;7383791;19;20705;-75
2022/12/23 10:10:49;;;;;;;2.45;1.60;;;12.10;32.30;;;;;;7381486;19;20022;-76
2022/12/23 10:13:28;;;;;;;11.07;6.93;;;12.10;33.10;;;;;;7386078;19;20348;-74
2022/12/23 10:16:02;;;;;;;5.50;2.60;;;12.10;34.50;;;;;;7387012;19;20370;-74
2022/12/23 10:18:52;;;;;;;2.88;1.60;;;12.10;34.50;;;;;;7382407;19;20462;-76
2022/12/23 10:21:31;;;;;;;3.08;2.05;;;12.10;35.00;;;;;;7383048;19;20002;-74
2022/12/23 10:24:05;;;;;;;4.72;2.17;;;12.00;35.80;;;;;;7385575;19;20015;-75
2022/12/23 10:26:43;;;;;;;3.55;1.95;;;12.00;35.80;;;;;;7386628;19;20018;-76
2022/12/23 10:29:18;;;;;;;2.63;2.10;;;12.10;36.20;;;;;;7378457;19;20258;-75
2022/12/23 10:32:01;;;;;;;3.90;2.60;;;12.10;35.90;;;;;;7385909;19;20130;-75
2022/12/23 10:34:41;;;;;;;7.80;2.70;;;12.10;36.00;;;;;;7392875;19;20438;-75
2022/12/23 10:37:22;;;;;;;3.50;2.50;;;12.10;36.50;;;;;;7391067;19;20020;-75
2022/12/23 10:40:03;;;;;;;2.80;2.20;;;12.10;36.40;;;;;;7384694;19;20366;-75
2022/12/23 10:42:39;;;;;;;7.05;2.60;;;12.10;37.40;;;;;;7390880;19;20014;-75
2022/12/23 10:45:28;;;;;;;6.28;2.90;;;12.10;37.70;;;;;;7365976;19;20097;-75
2022/12/23 10:48:09;;;;;;;7.32;2.45;;;12.10;37.80;;;;;;7385729;19;20467;-75
2022/12/23 10:50:56;;;;;;;3.97;2.50;;;12.10;38.90;;;;;;7357909;19;20010;-75
2022/12/23 10:53:38;;;;;;;6.10;2.92;;;12.20;39.20;;;;;;7364016;19;20018;-75
2022/12/23 10:56:10;;;;;;;6.65;2.10;;;12.20;39.50;;;;;;7363606;19;20050;-74
2022/12/23 10:58:43;;;;;;;4.35;2.20;;;12.20;40.00;;;;;;7362249;19;20018;-74
2022/12/23 11:01:18;;;;;;;3.70;2.33;;;12.20;39.80;;;;;;7361795;19;20202;-75
2022/12/23 11:04:03;;;;;;;4.03;1.75;;;12.30;40.50;;;;;;7362980;19;20011;-74
2022/12/23 11:06:35;;;;;;;4.20;2.97;;;12.30;40.10;;;;;;7364015;19;20025;-74
2022/12/23 11:09:07;;;;;;;11.27;7.30;;;12.30;39.90;;;;;;7381735;19;20019;-74
2022/12/23 11:11:55;;;;;;;5.57;2.03;;;12.30;39.10;;;;;;7359831;19;20114;-73
2022/12/23 11:14:34;;;;;;;3.58;1.67;;;12.40;39.90;;;;;;7362626;19;20014;-73
2022/12/23 11:17:20;;;;;;;3.28;1.80;;;12.30;40.90;;;;;;7363907;19;20015;-73
2022/12/23 11:19:50;;;;;;;5.55;1.98;;;12.30;41.90;;;;;;7359801;19;20034;-74
2022/12/23 11:22:26;;;;;;;5.40;1.98;;;12.30;43.30;;;;;;7363843;19;20432;-74
2022/12/23 11:24:56;;;;;;;3.10;1.63;;;12.20;43.70;;;;;;7361789;19;20130;-73
2022/12/23 11:27:28;;;;;;;5.80;2.33;;;12.20;45.70;;;;;;7378690;19;20018;-75
2022/12/23 11:29:58;;;;;;;6.32;2.22;;;12.20;47.20;;;;;;7353691;19;20015;-75
2022/12/23 11:32:31;;;;;;;3.35;1.80;;;12.10;47.90;;;;;;7358990;19;20014;-74
2022/12/23 11:35:00;;;;;;;3.40;1.70;;;12.10;49.20;;;;;;7359761;19;21154;-75
2022/12/23 11:37:37;;;;;;;6.50;2.45;;;12.00;49.70;;;;;;7355636;19;20015;-74
2022/12/23 11:40:24;;;;;;;3.15;2.20;;;12.10;51.10;;;;;;7356284;19;20496;-74
2022/12/23 11:42:59;;;;;;;5.13;2.92;;;12.00;51.20;;;;;;7359989;19;20018;-73
2022/12/23 11:45:31;;;;;;;6.57;2.85;;;12.00;51.80;;;;;;7390658;19;20014;-75
2022/12/23 11:48:05;;;;;;;13.10;7.10;;;12.00;52.60;;;;;;7389603;19;20329;-75
2022/12/23 11:50:37;;;;;;;6.25;4.05;;;12.00;53.10;;;;;;7387302;19;20019;-73
2022/12/23 11:53:16;;;;;;;3.78;2.70;;;12.00;52.60;;;;;;7390736;19;20077;-73
2022/12/23 11:55:57;;;;;;;5.45;2.78;;;12.00;52.80;;;;;;7392012;19;20023;-73
2022/12/23 11:58:29;;;;;;;8.43;2.97;;;12.00;54.00;;;;;;7385580;19;20010;-73
2022/12/23 12:01:00;;;;;;;6.10;2.90;;;12.00;54.50;;;;;;7385104;19;20482;-74
2022/12/23 12:03:44;;;;;;;4.13;2.88;;;12.00;55.10;;;;;;7388029;19;20026;-75
2022/12/23 12:06:18;;;;;;;14.10;3.83;;;11.90;55.20;;;;;;7390595;19;20374;-75
2022/12/23 12:08:52;;;;;;;7.72;3.25;;;11.90;55.30;;;;;;7383119;19;20086;-75
2022/12/23 12:11:27;;;;;;;4.68;2.90;;;12.00;56.50;;;;;;7384811;19;20464;-75
2022/12/23 12:14:01;;;;;;;7.90;3.30;;;11.90;56.60;;;;;;7388410;19;20073;-74
2022/12/23 12:16:48;;;;;;;5.63;2.30;;;11.90;57.20;;;;;;7388097;19;20462;-75
2022/12/23 12:19:25;;;;;;;3.88;2.17;;;11.90;57.70;;;;;;7386330;19;20011;-75
2022/12/23 12:22:00;;;;;;;7.75;3.20;;;11.90;58.20;;;;;;7386088;19;20014;-75
2022/12/23 12:24:34;;;;;;;8.48;2.60;;;12.00;58.30;;;;;;7389097;19;20022;-75
2022/12/23 12:27:09;;;;;;;3.97;1.95;;;11.90;58.10;;;;;;7389140;19;20499;-75
2022/12/23 12:29:43;;;;;;;4.60;2.40;;;11.90;58.70;;;;;;7386936;19;20458;-76
2022/12/23 12:32:19;;;;;;;2.80;2.00;;;12.00;58.70;;;;;;7389035;19;20476;-74
2022/12/23 12:34:57;;;;;;;3.95;2.55;;;12.00;59.10;;;;;;7388443;19;20037;-75
2022/12/23 12:37:37;;;;;;;10.60;3.25;;;12.00;58.80;;;;;;7387199;19;20473;-75
2022/12/23 12:40:22;;;;;;;12.18;4.07;;;12.00;58.90;;;;;;7384206;19;20014;-73
2022/12/23 12:42:58;;;;;;;8.40;4.63;;;12.00;59.20;;;;;;7388925;19;20010;-74
2022/12/23 12:45:34;;;;;;;6.05;4.90;;;12.00;59.20;;;;;;7388349;19;20038;-75
2022/12/23 12:48:21;;;;;;;9.27;4.88;;;12.00;59.30;;;;;;7386462;19;20022;-75
2022/12/23 12:51:01;;;;;;;9.70;5.03;;;12.00;59.40;;;;;;7375686;19;20034;-75
2022/12/23 12:53:33;;;;;;;6.97;4.80;;;12.00;59.40;;;;;;7356070;19;20632;-74
2022/12/23 12:56:12;;;;;;;11.40;5.47;;;12.00;59.40;;;;;;7357834;19;20026;-75
2022/12/23 12:58:43;;;;;;;6.82;5.03;;;12.00;59.50;;;;;;7354964;19;20359;-75
2022/12/23 13:01:27;;;;;;;7.80;4.88;;;12.00;60.00;;;;;;7356266;19;20022;-74
2022/12/23 13:04:28;;;;;;;8.60;5.03;;;11.90;60.70;;;;;;7355499;19;20064;-74
2022/12/23 13:07:06;;;;;;;9.07;4.90;;;11.90;60.30;;;;;;7356524;19;20010;-73
2022/12/23 13:09:45;;;;;;;11.13;5.00;;;12.00;60.70;;;;;;7356046;19;20017;-73
2022/12/23 13:12:24;;;;;;;8.70;5.32;;;12.00;61.00;;;;;;7357094;19;20007;-73
2022/12/23 13:15:09;;;;;;;10.82;5.72;;;12.00;61.20;;;;;;7356549;19;20018;-74
2022/12/23 13:17:45;;;;;;;6.38;4.55;;;12.00;61.50;;;;;;7376873;19;20018;-73
2022/12/23 13:20:24;;;;;;;6.15;3.67;;;12.00;61.10;;;;;;7353274;19;20015;-75
2022/12/23 13:23:08;;;;;;;8.10;4.07;;;12.00;61.50;;;;;;7354744;19;20371;-74
2022/12/23 13:26:05;;;;;;;6.07;4.30;;;12.00;61.20;;;;;;7358634;19;20014;-74
2022/12/23 13:28:46;;;;;;;5.43;4.05;;;12.00;61.30;;;;;;7355114;19;20018;-74
2022/12/23 13:31:27;;;;;;;8.25;4.25;;;12.00;61.50;;;;;;7355518;19;20063;-74
2022/12/23 13:34:04;;;;;;;6.03;3.63;;;12.00;61.10;;;;;;7356956;19;20063;-73
2022/12/23 13:36:46;;;;;;;9.45;4.07;;;12.00;61.60;;;;;;7359723;19;20017;-74
2022/12/23 13:39:37;;;;;;;6.38;4.07;;;12.00;62.00;;;;;;7356161;19;20024;-73
2022/12/23 13:42:11;;;;;;;5.72;3.55;;;12.00;62.20;;;;;;7357013;19;20201;-74
2022/12/23 13:44:42;;;;;;;11.25;4.80;;;12.00;62.00;;;;;;7380630;19;20015;-74
2022/12/23 13:47:17;;;;;;;6.38;3.85;;;12.00;62.40;;;;;;7358832;19;20044;-75
2022/12/23 13:50:00;;;;;;;5.53;3.70;;;12.00;62.90;;;;;;7353267;19;20014;-75